Etusivu
METAR-TAF:

METAR-TAF

Lentoasemat :

Galesburg Municipal Airport

Galesburg, Illinois, Yhdysvallat

Leveyspiiri: 40-56-17N, Pituuspiiri: 090-25-52W, korkeus merenpinnasta: 233 m

Tämänhetkinen sää

Tämä raportti tehtiin 15 minuuttia sitten, kello 11.35 UTC
Tuuli 8 kn lännestä
Lämpötila 2°C
Kosteus 93%
Ilmanpaine 1011 hPa
Näkyvyys: 16.1 km
Pilvistä 1500 ft:n korkeudessa

METAR: KGBG 181135Z AUTO 28008KT 10SM OVC015 02/01 A2985 RMK AO2 T00170005

Aika: 05:50 (11:50 UTC)


TAF: puuttuu

Säähavainnot ja -ennusteet yli 4000 lentoasemalta (METAR- ja TAF-raportit).

Käytössä olevat sääasemat on merkitty karttaan keltaisilla ja punaisilla pisteillä.

Aseta hiiri pisteen päälle nähdäksesi sääaseman nimen.

Klikkaa sitten nähdäksesi säähavainnot ja -ennusteet.

Kartan vaihtaminen: klikkaa mustalla rastilla varustettuja vihreitä pisteitä, niin voit zoomata sisään; viivalla varustettua vihreää pistettä, niin voit zoomata ulos tai vihreitä nuolia, niin pääset viereisille kartoille.


METAR-TAF: